sensor_id;sensor_type;location;lat;lon;timestamp;P1;durP1;ratioP1;P2;durP2;ratioP2
22282;SDS011;11310;51.528;21.204;2024-02-23T00:00:48;5.95;;;3.15;;
22282;SDS011;11310;51.528;21.204;2024-02-23T00:03:18;10.70;;;3.67;;
22282;SDS011;11310;51.528;21.204;2024-02-23T00:05:47;6.32;;;3.28;;
22282;SDS011;11310;51.528;21.204;2024-02-23T00:08:15;7.07;;;3.45;;
22282;SDS011;11310;51.528;21.204;2024-02-23T00:10:46;6.53;;;3.50;;
22282;SDS011;11310;51.528;21.204;2024-02-23T00:13:15;8.18;;;3.42;;
22282;SDS011;11310;51.528;21.204;2024-02-23T00:15:43;7.88;;;3.80;;
22282;SDS011;11310;51.528;21.204;2024-02-23T00:18:11;6.78;;;3.35;;
22282;SDS011;11310;51.528;21.204;2024-02-23T00:20:43;6.43;;;3.72;;
22282;SDS011;11310;51.528;21.204;2024-02-23T00:23:12;7.50;;;3.60;;
22282;SDS011;11310;51.528;21.204;2024-02-23T00:25:40;6.03;;;3.22;;
22282;SDS011;11310;51.528;21.204;2024-02-23T00:28:09;7.65;;;3.80;;
22282;SDS011;11310;51.528;21.204;2024-02-23T00:30:37;8.57;;;3.35;;
22282;SDS011;11310;51.528;21.204;2024-02-23T00:33:06;9.55;;;3.53;;
22282;SDS011;11310;51.528;21.204;2024-02-23T00:35:35;5.82;;;2.95;;
22282;SDS011;11310;51.528;21.204;2024-02-23T00:38:06;6.45;;;3.40;;
22282;SDS011;11310;51.528;21.204;2024-02-23T00:40:37;7.70;;;3.33;;
22282;SDS011;11310;51.528;21.204;2024-02-23T00:43:08;5.47;;;2.73;;
22282;SDS011;11310;51.528;21.204;2024-02-23T00:45:37;6.70;;;3.38;;
22282;SDS011;11310;51.528;21.204;2024-02-23T00:48:06;6.72;;;2.90;;
22282;SDS011;11310;51.528;21.204;2024-02-23T00:50:35;5.93;;;3.25;;
22282;SDS011;11310;51.528;21.204;2024-02-23T00:53:05;7.10;;;3.22;;
22282;SDS011;11310;51.528;21.204;2024-02-23T00:55:34;5.70;;;2.80;;
22282;SDS011;11310;51.528;21.204;2024-02-23T00:58:02;5.55;;;3.03;;
22282;SDS011;11310;51.528;21.204;2024-02-23T01:00:31;5.05;;;2.42;;
22282;SDS011;11310;51.528;21.204;2024-02-23T01:03:01;6.78;;;2.65;;
22282;SDS011;11310;51.528;21.204;2024-02-23T01:05:30;8.13;;;2.95;;
22282;SDS011;11310;51.528;21.204;2024-02-23T01:07:58;6.68;;;3.17;;
22282;SDS011;11310;51.528;21.204;2024-02-23T01:10:30;6.78;;;2.78;;
22282;SDS011;11310;51.528;21.204;2024-02-23T01:12:59;5.65;;;2.65;;
22282;SDS011;11310;51.528;21.204;2024-02-23T01:15:30;4.97;;;2.63;;
22282;SDS011;11310;51.528;21.204;2024-02-23T01:17:58;5.93;;;2.75;;
22282;SDS011;11310;51.528;21.204;2024-02-23T01:20:28;4.85;;;2.58;;
22282;SDS011;11310;51.528;21.204;2024-02-23T01:22:58;4.93;;;2.50;;
22282;SDS011;11310;51.528;21.204;2024-02-23T01:25:27;4.07;;;2.45;;
22282;SDS011;11310;51.528;21.204;2024-02-23T01:28:01;4.57;;;2.70;;
22282;SDS011;11310;51.528;21.204;2024-02-23T01:30:32;6.45;;;2.55;;
22282;SDS011;11310;51.528;21.204;2024-02-23T01:33:00;5.22;;;2.75;;
22282;SDS011;11310;51.528;21.204;2024-02-23T01:35:30;5.40;;;2.38;;
22282;SDS011;11310;51.528;21.204;2024-02-23T01:37:58;4.80;;;2.50;;
22282;SDS011;11310;51.528;21.204;2024-02-23T01:40:34;4.38;;;2.42;;
22282;SDS011;11310;51.528;21.204;2024-02-23T01:43:06;3.95;;;2.13;;
22282;SDS011;11310;51.528;21.204;2024-02-23T01:45:34;5.63;;;2.70;;
22282;SDS011;11310;51.528;21.204;2024-02-23T01:50:35;4.85;;;2.33;;
22282;SDS011;11310;51.528;21.204;2024-02-23T01:53:09;6.10;;;2.20;;
22282;SDS011;11310;51.528;21.204;2024-02-23T01:55:41;6.55;;;2.17;;
22282;SDS011;11310;51.528;21.204;2024-02-23T01:58:10;5.35;;;2.50;;
22282;SDS011;11310;51.528;21.204;2024-02-23T02:00:39;3.90;;;2.20;;
22282;SDS011;11310;51.528;21.204;2024-02-23T02:03:07;5.13;;;2.30;;
22282;SDS011;11310;51.528;21.204;2024-02-23T02:05:38;4.00;;;2.28;;
22282;SDS011;11310;51.528;21.204;2024-02-23T02:08:11;4.88;;;2.35;;
22282;SDS011;11310;51.528;21.204;2024-02-23T02:13:14;4.47;;;2.45;;
22282;SDS011;11310;51.528;21.204;2024-02-23T02:15:45;4.38;;;2.28;;
22282;SDS011;11310;51.528;21.204;2024-02-23T02:18:14;3.17;;;2.00;;
22282;SDS011;11310;51.528;21.204;2024-02-23T02:20:51;4.90;;;2.45;;
22282;SDS011;11310;51.528;21.204;2024-02-23T02:23:25;5.15;;;2.20;;
22282;SDS011;11310;51.528;21.204;2024-02-23T02:25:57;5.40;;;2.20;;
22282;SDS011;11310;51.528;21.204;2024-02-23T02:28:30;3.90;;;2.10;;
22282;SDS011;11310;51.528;21.204;2024-02-23T02:30:59;4.30;;;2.05;;
22282;SDS011;11310;51.528;21.204;2024-02-23T02:33:27;4.22;;;2.20;;
22282;SDS011;11310;51.528;21.204;2024-02-23T02:35:57;4.00;;;1.95;;
22282;SDS011;11310;51.528;21.204;2024-02-23T02:38:31;4.13;;;2.00;;
22282;SDS011;11310;51.528;21.204;2024-02-23T02:41:04;4.43;;;2.20;;
22282;SDS011;11310;51.528;21.204;2024-02-23T02:43:32;4.25;;;2.20;;
22282;SDS011;11310;51.528;21.204;2024-02-23T02:46:04;5.80;;;2.10;;
22282;SDS011;11310;51.528;21.204;2024-02-23T02:48:37;4.50;;;2.40;;
22282;SDS011;11310;51.528;21.204;2024-02-23T02:51:06;4.15;;;2.15;;
22282;SDS011;11310;51.528;21.204;2024-02-23T02:53:34;5.20;;;2.05;;
22282;SDS011;11310;51.528;21.204;2024-02-23T02:56:07;4.85;;;2.42;;
22282;SDS011;11310;51.528;21.204;2024-02-23T02:58:38;4.10;;;2.20;;
22282;SDS011;11310;51.528;21.204;2024-02-23T03:01:06;3.67;;;1.65;;
22282;SDS011;11310;51.528;21.204;2024-02-23T03:03:35;3.92;;;1.95;;
22282;SDS011;11310;51.528;21.204;2024-02-23T03:06:06;4.15;;;1.88;;
22282;SDS011;11310;51.528;21.204;2024-02-23T03:08:34;4.47;;;1.95;;
22282;SDS011;11310;51.528;21.204;2024-02-23T03:11:03;3.05;;;1.65;;
22282;SDS011;11310;51.528;21.204;2024-02-23T03:13:33;5.20;;;2.08;;
22282;SDS011;11310;51.528;21.204;2024-02-23T03:16:02;4.30;;;2.00;;
22282;SDS011;11310;51.528;21.204;2024-02-23T03:18:31;3.83;;;1.58;;
22282;SDS011;11310;51.528;21.204;2024-02-23T03:21:00;3.35;;;1.92;;
22282;SDS011;11310;51.528;21.204;2024-02-23T03:23:28;4.57;;;2.35;;
22282;SDS011;11310;51.528;21.204;2024-02-23T03:25:57;2.83;;;1.75;;
22282;SDS011;11310;51.528;21.204;2024-02-23T03:28:25;2.72;;;1.70;;
22282;SDS011;11310;51.528;21.204;2024-02-23T03:30:55;3.72;;;1.80;;
22282;SDS011;11310;51.528;21.204;2024-02-23T03:33:26;4.15;;;1.75;;
22282;SDS011;11310;51.528;21.204;2024-02-23T03:35:57;4.28;;;1.80;;
22282;SDS011;11310;51.528;21.204;2024-02-23T03:38:26;3.53;;;1.70;;
22282;SDS011;11310;51.528;21.204;2024-02-23T03:40:58;2.78;;;1.40;;
22282;SDS011;11310;51.528;21.204;2024-02-23T03:43:26;5.10;;;1.85;;
22282;SDS011;11310;51.528;21.204;2024-02-23T03:46:00;2.90;;;1.67;;
22282;SDS011;11310;51.528;21.204;2024-02-23T03:48:31;3.72;;;1.85;;
22282;SDS011;11310;51.528;21.204;2024-02-23T03:51:02;4.63;;;1.98;;
22282;SDS011;11310;51.528;21.204;2024-02-23T03:53:34;3.55;;;1.92;;
22282;SDS011;11310;51.528;21.204;2024-02-23T03:56:08;3.35;;;1.90;;
22282;SDS011;11310;51.528;21.204;2024-02-23T03:58:36;3.72;;;1.67;;
22282;SDS011;11310;51.528;21.204;2024-02-23T04:01:06;4.15;;;1.63;;
22282;SDS011;11310;51.528;21.204;2024-02-23T04:03:36;5.05;;;1.67;;
22282;SDS011;11310;51.528;21.204;2024-02-23T04:06:05;3.03;;;1.33;;
22282;SDS011;11310;51.528;21.204;2024-02-23T04:08:34;4.03;;;1.73;;
22282;SDS011;11310;51.528;21.204;2024-02-23T04:11:04;4.22;;;1.48;;
22282;SDS011;11310;51.528;21.204;2024-02-23T04:13:36;3.83;;;1.38;;
22282;SDS011;11310;51.528;21.204;2024-02-23T04:16:05;2.00;;;1.48;;
22282;SDS011;11310;51.528;21.204;2024-02-23T04:18:37;3.13;;;1.73;;
22282;SDS011;11310;51.528;21.204;2024-02-23T04:21:06;5.80;;;1.70;;
22282;SDS011;11310;51.528;21.204;2024-02-23T04:23:34;3.78;;;1.67;;
22282;SDS011;11310;51.528;21.204;2024-02-23T04:26:03;3.45;;;1.60;;
22282;SDS011;11310;51.528;21.204;2024-02-23T04:28:31;4.13;;;1.77;;
22282;SDS011;11310;51.528;21.204;2024-02-23T04:31:00;4.18;;;1.30;;
22282;SDS011;11310;51.528;21.204;2024-02-23T04:33:30;3.00;;;1.63;;
22282;SDS011;11310;51.528;21.204;2024-02-23T04:35:59;4.93;;;1.58;;
22282;SDS011;11310;51.528;21.204;2024-02-23T04:38:28;3.10;;;1.42;;
22282;SDS011;11310;51.528;21.204;2024-02-23T04:46:00;1.98;;;1.27;;
22282;SDS011;11310;51.528;21.204;2024-02-23T04:48:30;3.30;;;1.60;;
22282;SDS011;11310;51.528;21.204;2024-02-23T04:51:03;3.17;;;1.38;;
22282;SDS011;11310;51.528;21.204;2024-02-23T04:53:35;2.85;;;1.42;;
22282;SDS011;11310;51.528;21.204;2024-02-23T04:56:04;2.88;;;1.55;;
22282;SDS011;11310;51.528;21.204;2024-02-23T04:58:33;3.00;;;1.60;;
22282;SDS011;11310;51.528;21.204;2024-02-23T05:01:02;3.15;;;1.90;;
22282;SDS011;11310;51.528;21.204;2024-02-23T05:03:32;4.05;;;1.90;;
22282;SDS011;11310;51.528;21.204;2024-02-23T05:06:02;5.57;;;1.98;;
22282;SDS011;11310;51.528;21.204;2024-02-23T05:08:31;4.27;;;1.90;;
22282;SDS011;11310;51.528;21.204;2024-02-23T05:11:00;5.18;;;2.00;;
22282;SDS011;11310;51.528;21.204;2024-02-23T05:13:29;4.50;;;2.00;;
22282;SDS011;11310;51.528;21.204;2024-02-23T05:15:58;4.47;;;2.05;;
22282;SDS011;11310;51.528;21.204;2024-02-23T05:18:27;6.70;;;1.90;;
22282;SDS011;11310;51.528;21.204;2024-02-23T05:20:57;3.90;;;1.95;;
22282;SDS011;11310;51.528;21.204;2024-02-23T05:23:27;3.17;;;1.60;;
22282;SDS011;11310;51.528;21.204;2024-02-23T05:25:55;4.15;;;1.98;;
22282;SDS011;11310;51.528;21.204;2024-02-23T05:28:23;5.50;;;2.05;;
22282;SDS011;11310;51.528;21.204;2024-02-23T05:30:54;7.95;;;2.60;;
22282;SDS011;11310;51.528;21.204;2024-02-23T05:33:23;5.85;;;2.42;;
22282;SDS011;11310;51.528;21.204;2024-02-23T05:35:53;6.15;;;2.40;;
22282;SDS011;11310;51.528;21.204;2024-02-23T05:38:23;5.43;;;2.35;;
22282;SDS011;11310;51.528;21.204;2024-02-23T05:40:51;7.43;;;3.15;;
22282;SDS011;11310;51.528;21.204;2024-02-23T05:43:20;3.47;;;1.92;;
22282;SDS011;11310;51.528;21.204;2024-02-23T05:45:49;4.95;;;2.10;;
22282;SDS011;11310;51.528;21.204;2024-02-23T05:48:18;5.57;;;2.17;;
22282;SDS011;11310;51.528;21.204;2024-02-23T05:50:48;4.13;;;2.15;;
22282;SDS011;11310;51.528;21.204;2024-02-23T05:53:17;5.10;;;2.33;;
22282;SDS011;11310;51.528;21.204;2024-02-23T05:55:48;4.63;;;2.10;;
22282;SDS011;11310;51.528;21.204;2024-02-23T06:00:57;4.95;;;2.10;;
22282;SDS011;11310;51.528;21.204;2024-02-23T06:03:26;3.33;;;1.67;;
22282;SDS011;11310;51.528;21.204;2024-02-23T06:05:57;5.55;;;2.20;;
22282;SDS011;11310;51.528;21.204;2024-02-23T06:08:31;4.85;;;2.25;;
22282;SDS011;11310;51.528;21.204;2024-02-23T06:11:01;4.80;;;2.13;;
22282;SDS011;11310;51.528;21.204;2024-02-23T06:13:30;5.95;;;2.05;;
22282;SDS011;11310;51.528;21.204;2024-02-23T06:16:00;8.35;;;3.00;;
22282;SDS011;11310;51.528;21.204;2024-02-23T06:18:29;9.93;;;2.63;;
22282;SDS011;11310;51.528;21.204;2024-02-23T06:20:58;9.05;;;3.03;;
22282;SDS011;11310;51.528;21.204;2024-02-23T06:23:27;5.95;;;2.53;;
22282;SDS011;11310;51.528;21.204;2024-02-23T06:25:57;4.90;;;2.60;;
22282;SDS011;11310;51.528;21.204;2024-02-23T06:28:27;9.52;;;2.42;;
22282;SDS011;11310;51.528;21.204;2024-02-23T06:30:56;4.07;;;2.45;;
22282;SDS011;11310;51.528;21.204;2024-02-23T06:33:25;7.20;;;2.60;;
22282;SDS011;11310;51.528;21.204;2024-02-23T06:35:54;6.00;;;2.30;;
22282;SDS011;11310;51.528;21.204;2024-02-23T06:38:23;5.25;;;2.70;;
22282;SDS011;11310;51.528;21.204;2024-02-23T06:40:52;4.32;;;2.35;;
22282;SDS011;11310;51.528;21.204;2024-02-23T06:43:20;6.38;;;2.60;;
22282;SDS011;11310;51.528;21.204;2024-02-23T06:45:52;5.53;;;2.58;;
22282;SDS011;11310;51.528;21.204;2024-02-23T06:48:21;8.77;;;2.95;;
22282;SDS011;11310;51.528;21.204;2024-02-23T06:50:57;6.63;;;2.92;;
22282;SDS011;11310;51.528;21.204;2024-02-23T06:53:26;7.63;;;2.60;;
22282;SDS011;11310;51.528;21.204;2024-02-23T06:55:57;7.67;;;2.70;;
22282;SDS011;11310;51.528;21.204;2024-02-23T06:58:27;5.38;;;2.47;;
22282;SDS011;11310;51.528;21.204;2024-02-23T07:00:58;7.05;;;3.67;;
22282;SDS011;11310;51.528;21.204;2024-02-23T07:03:27;4.60;;;2.85;;
22282;SDS011;11310;51.528;21.204;2024-02-23T07:05:57;5.15;;;2.65;;
22282;SDS011;11310;51.528;21.204;2024-02-23T07:08:25;6.00;;;2.45;;
22282;SDS011;11310;51.528;21.204;2024-02-23T07:10:54;6.45;;;2.30;;
22282;SDS011;11310;51.528;21.204;2024-02-23T07:13:23;9.75;;;4.72;;
22282;SDS011;11310;51.528;21.204;2024-02-23T07:15:51;11.73;;;4.55;;
22282;SDS011;11310;51.528;21.204;2024-02-23T07:18:21;12.68;;;5.35;;
22282;SDS011;11310;51.528;21.204;2024-02-23T07:20:50;13.02;;;5.10;;
22282;SDS011;11310;51.528;21.204;2024-02-23T07:23:19;16.25;;;6.07;;
22282;SDS011;11310;51.528;21.204;2024-02-23T07:25:52;13.07;;;5.00;;
22282;SDS011;11310;51.528;21.204;2024-02-23T07:28:22;12.77;;;5.03;;
22282;SDS011;11310;51.528;21.204;2024-02-23T07:30:50;8.75;;;4.50;;
22282;SDS011;11310;51.528;21.204;2024-02-23T07:33:21;10.30;;;3.92;;
22282;SDS011;11310;51.528;21.204;2024-02-23T07:35:50;8.43;;;3.42;;
22282;SDS011;11310;51.528;21.204;2024-02-23T07:38:19;9.18;;;4.30;;
22282;SDS011;11310;51.528;21.204;2024-02-23T07:40:47;7.38;;;3.25;;
22282;SDS011;11310;51.528;21.204;2024-02-23T07:43:16;7.22;;;2.97;;
22282;SDS011;11310;51.528;21.204;2024-02-23T07:45:45;5.15;;;2.67;;
22282;SDS011;11310;51.528;21.204;2024-02-23T07:48:14;5.03;;;2.83;;
22282;SDS011;11310;51.528;21.204;2024-02-23T07:50:47;6.65;;;3.10;;
22282;SDS011;11310;51.528;21.204;2024-02-23T07:53:16;5.13;;;2.45;;
22282;SDS011;11310;51.528;21.204;2024-02-23T07:55:45;6.03;;;2.95;;
22282;SDS011;11310;51.528;21.204;2024-02-23T07:58:15;7.32;;;3.40;;
22282;SDS011;11310;51.528;21.204;2024-02-23T08:00:43;6.55;;;2.92;;
22282;SDS011;11310;51.528;21.204;2024-02-23T08:03:14;6.72;;;3.50;;
22282;SDS011;11310;51.528;21.204;2024-02-23T08:05:45;4.95;;;2.72;;
22282;SDS011;11310;51.528;21.204;2024-02-23T08:08:16;7.20;;;2.95;;
22282;SDS011;11310;51.528;21.204;2024-02-23T08:10:46;6.00;;;2.75;;
22282;SDS011;11310;51.528;21.204;2024-02-23T08:13:22;5.45;;;3.05;;
22282;SDS011;11310;51.528;21.204;2024-02-23T08:15:50;7.43;;;3.22;;
22282;SDS011;11310;51.528;21.204;2024-02-23T08:18:20;5.90;;;3.00;;
22282;SDS011;11310;51.528;21.204;2024-02-23T08:20:53;5.95;;;3.17;;
22282;SDS011;11310;51.528;21.204;2024-02-23T08:23:23;6.88;;;2.78;;
22282;SDS011;11310;51.528;21.204;2024-02-23T08:25:52;7.07;;;3.08;;
22282;SDS011;11310;51.528;21.204;2024-02-23T08:28:23;5.32;;;2.72;;
22282;SDS011;11310;51.528;21.204;2024-02-23T08:30:52;6.50;;;3.08;;
22282;SDS011;11310;51.528;21.204;2024-02-23T08:33:21;7.13;;;3.47;;
22282;SDS011;11310;51.528;21.204;2024-02-23T08:35:53;5.85;;;2.97;;
22282;SDS011;11310;51.528;21.204;2024-02-23T08:38:22;6.47;;;3.22;;
22282;SDS011;11310;51.528;21.204;2024-02-23T08:40:53;7.43;;;3.30;;
22282;SDS011;11310;51.528;21.204;2024-02-23T08:43:21;6.68;;;3.35;;
22282;SDS011;11310;51.528;21.204;2024-02-23T08:45:50;7.15;;;3.63;;
22282;SDS011;11310;51.528;21.204;2024-02-23T08:48:19;10.13;;;4.25;;
22282;SDS011;11310;51.528;21.204;2024-02-23T08:50:49;6.28;;;3.03;;
22282;SDS011;11310;51.528;21.204;2024-02-23T08:53:19;8.30;;;3.53;;
22282;SDS011;11310;51.528;21.204;2024-02-23T08:55:48;7.22;;;3.70;;
22282;SDS011;11310;51.528;21.204;2024-02-23T08:58:17;7.35;;;3.05;;
22282;SDS011;11310;51.528;21.204;2024-02-23T09:00:45;6.00;;;2.85;;
22282;SDS011;11310;51.528;21.204;2024-02-23T09:03:14;7.55;;;3.58;;
22282;SDS011;11310;51.528;21.204;2024-02-23T09:05:45;6.05;;;2.95;;
22282;SDS011;11310;51.528;21.204;2024-02-23T09:08:15;8.48;;;3.75;;
22282;SDS011;11310;51.528;21.204;2024-02-23T09:10:45;12.02;;;4.10;;
22282;SDS011;11310;51.528;21.204;2024-02-23T09:13:14;13.07;;;3.65;;
22282;SDS011;11310;51.528;21.204;2024-02-23T09:15:44;9.20;;;4.18;;
22282;SDS011;11310;51.528;21.204;2024-02-23T09:18:13;6.55;;;3.30;;
22282;SDS011;11310;51.528;21.204;2024-02-23T09:20:42;8.68;;;3.67;;
22282;SDS011;11310;51.528;21.204;2024-02-23T09:23:11;8.25;;;3.92;;
22282;SDS011;11310;51.528;21.204;2024-02-23T09:25:40;9.35;;;4.22;;
22282;SDS011;11310;51.528;21.204;2024-02-23T09:28:12;8.10;;;3.75;;
22282;SDS011;11310;51.528;21.204;2024-02-23T09:30:41;9.25;;;4.20;;
22282;SDS011;11310;51.528;21.204;2024-02-23T09:33:11;5.75;;;3.38;;
22282;SDS011;11310;51.528;21.204;2024-02-23T09:35:41;7.53;;;3.33;;
22282;SDS011;11310;51.528;21.204;2024-02-23T09:38:10;5.70;;;2.85;;
22282;SDS011;11310;51.528;21.204;2024-02-23T09:40:39;7.03;;;3.35;;
22282;SDS011;11310;51.528;21.204;2024-02-23T09:43:08;7.28;;;3.75;;
22282;SDS011;11310;51.528;21.204;2024-02-23T09:45:40;7.75;;;3.47;;
22282;SDS011;11310;51.528;21.204;2024-02-23T09:48:09;10.25;;;3.75;;
22282;SDS011;11310;51.528;21.204;2024-02-23T09:50:39;7.82;;;3.80;;
22282;SDS011;11310;51.528;21.204;2024-02-23T09:53:10;8.75;;;4.00;;
22282;SDS011;11310;51.528;21.204;2024-02-23T09:55:41;9.80;;;3.87;;
22282;SDS011;11310;51.528;21.204;2024-02-23T09:58:15;10.07;;;4.15;;
22282;SDS011;11310;51.528;21.204;2024-02-23T10:00:46;14.75;;;6.90;;
22282;SDS011;11310;51.528;21.204;2024-02-23T10:03:15;33.72;;;13.98;;
22282;SDS011;11310;51.528;21.204;2024-02-23T10:05:46;24.95;;;11.38;;
22282;SDS011;11310;51.528;21.204;2024-02-23T10:08:15;20.00;;;9.27;;
22282;SDS011;11310;51.528;21.204;2024-02-23T10:10:45;18.63;;;9.57;;
22282;SDS011;11310;51.528;21.204;2024-02-23T10:13:18;15.32;;;7.75;;
22282;SDS011;11310;51.528;21.204;2024-02-23T10:15:50;11.95;;;5.82;;
22282;SDS011;11310;51.528;21.204;2024-02-23T10:18:39;20.70;;;10.07;;
22282;SDS011;11310;51.528;21.204;2024-02-23T10:21:10;16.25;;;8.15;;
22282;SDS011;11310;51.528;21.204;2024-02-23T10:23:39;15.80;;;7.57;;
22282;SDS011;11310;51.528;21.204;2024-02-23T10:26:08;10.38;;;5.22;;
22282;SDS011;11310;51.528;21.204;2024-02-23T10:28:38;13.38;;;6.95;;
22282;SDS011;11310;51.528;21.204;2024-02-23T10:31:08;12.73;;;6.90;;
22282;SDS011;11310;51.528;21.204;2024-02-23T10:33:39;11.27;;;6.95;;
22282;SDS011;11310;51.528;21.204;2024-02-23T10:36:08;9.60;;;5.35;;
22282;SDS011;11310;51.528;21.204;2024-02-23T10:38:40;8.73;;;4.40;;
22282;SDS011;11310;51.528;21.204;2024-02-23T10:41:12;10.00;;;4.70;;
22282;SDS011;11310;51.528;21.204;2024-02-23T10:43:43;9.40;;;4.30;;
22282;SDS011;11310;51.528;21.204;2024-02-23T10:46:17;10.75;;;4.10;;
22282;SDS011;11310;51.528;21.204;2024-02-23T10:48:48;8.20;;;4.03;;
22282;SDS011;11310;51.528;21.204;2024-02-23T10:51:21;10.52;;;3.60;;
22282;SDS011;11310;51.528;21.204;2024-02-23T10:53:49;7.97;;;3.67;;
22282;SDS011;11310;51.528;21.204;2024-02-23T10:56:18;8.57;;;3.58;;
22282;SDS011;11310;51.528;21.204;2024-02-23T10:58:49;9.75;;;4.15;;
22282;SDS011;11310;51.528;21.204;2024-02-23T11:01:20;8.48;;;3.97;;
22282;SDS011;11310;51.528;21.204;2024-02-23T11:03:51;8.07;;;4.22;;
22282;SDS011;11310;51.528;21.204;2024-02-23T11:06:26;10.60;;;4.38;;
22282;SDS011;11310;51.528;21.204;2024-02-23T11:09:04;10.23;;;4.75;;
22282;SDS011;11310;51.528;21.204;2024-02-23T11:11:34;10.80;;;4.93;;
22282;SDS011;11310;51.528;21.204;2024-02-23T11:14:07;8.68;;;4.03;;
22282;SDS011;11310;51.528;21.204;2024-02-23T11:19:09;9.30;;;4.53;;
22282;SDS011;11310;51.528;21.204;2024-02-23T11:21:40;11.02;;;4.55;;
22282;SDS011;11310;51.528;21.204;2024-02-23T11:24:08;8.90;;;4.10;;
22282;SDS011;11310;51.528;21.204;2024-02-23T11:26:44;9.88;;;4.32;;
22282;SDS011;11310;51.528;21.204;2024-02-23T11:29:15;9.13;;;3.60;;
22282;SDS011;11310;51.528;21.204;2024-02-23T11:31:50;8.80;;;4.15;;
22282;SDS011;11310;51.528;21.204;2024-02-23T11:34:23;7.07;;;3.60;;
22282;SDS011;11310;51.528;21.204;2024-02-23T11:36:54;8.27;;;4.47;;
22282;SDS011;11310;51.528;21.204;2024-02-23T11:39:26;9.77;;;3.83;;
22282;SDS011;11310;51.528;21.204;2024-02-23T11:41:57;7.32;;;3.83;;
22282;SDS011;11310;51.528;21.204;2024-02-23T11:44:27;8.35;;;3.92;;
22282;SDS011;11310;51.528;21.204;2024-02-23T11:46:59;8.75;;;4.15;;
22282;SDS011;11310;51.528;21.204;2024-02-23T11:49:29;8.65;;;4.07;;
22282;SDS011;11310;51.528;21.204;2024-02-23T11:51:59;8.32;;;3.55;;
22282;SDS011;11310;51.528;21.204;2024-02-23T11:54:28;8.20;;;4.38;;
22282;SDS011;11310;51.528;21.204;2024-02-23T11:56:58;9.02;;;4.78;;
22282;SDS011;11310;51.528;21.204;2024-02-23T11:59:28;11.50;;;4.32;;
22282;SDS011;11310;51.528;21.204;2024-02-23T12:01:58;7.03;;;3.90;;
22282;SDS011;11310;51.528;21.204;2024-02-23T12:04:32;9.00;;;4.28;;
22282;SDS011;11310;51.528;21.204;2024-02-23T12:07:02;7.93;;;3.95;;
22282;SDS011;11310;51.528;21.204;2024-02-23T12:09:32;8.23;;;3.90;;
22282;SDS011;11310;51.528;21.204;2024-02-23T12:12:03;9.57;;;3.93;;
22282;SDS011;11310;51.528;21.204;2024-02-23T12:14:35;5.65;;;3.58;;
22282;SDS011;11310;51.528;21.204;2024-02-23T12:17:06;8.30;;;4.13;;
22282;SDS011;11310;51.528;21.204;2024-02-23T12:19:49;7.93;;;4.22;;
22282;SDS011;11310;51.528;21.204;2024-02-23T12:22:24;8.60;;;4.13;;
22282;SDS011;11310;51.528;21.204;2024-02-23T12:27:25;8.30;;;3.72;;
22282;SDS011;11310;51.528;21.204;2024-02-23T12:29:56;7.80;;;3.70;;
22282;SDS011;11310;51.528;21.204;2024-02-23T12:32:27;8.48;;;4.10;;
22282;SDS011;11310;51.528;21.204;2024-02-23T12:34:58;9.30;;;4.13;;
22282;SDS011;11310;51.528;21.204;2024-02-23T12:37:27;6.93;;;3.75;;
22282;SDS011;11310;51.528;21.204;2024-02-23T12:39:58;10.85;;;3.78;;
22282;SDS011;11310;51.528;21.204;2024-02-23T12:42:28;9.00;;;3.90;;
22282;SDS011;11310;51.528;21.204;2024-02-23T12:44:57;8.50;;;3.70;;
22282;SDS011;11310;51.528;21.204;2024-02-23T12:47:25;8.52;;;3.65;;
22282;SDS011;11310;51.528;21.204;2024-02-23T12:49:56;10.07;;;3.50;;
22282;SDS011;11310;51.528;21.204;2024-02-23T12:52:25;6.82;;;3.47;;
22282;SDS011;11310;51.528;21.204;2024-02-23T12:54:53;6.90;;;3.40;;
22282;SDS011;11310;51.528;21.204;2024-02-23T12:57:22;7.95;;;3.80;;
22282;SDS011;11310;51.528;21.204;2024-02-23T12:59:51;9.43;;;3.70;;
22282;SDS011;11310;51.528;21.204;2024-02-23T13:02:22;7.93;;;3.53;;
22282;SDS011;11310;51.528;21.204;2024-02-23T13:04:51;8.57;;;3.88;;
22282;SDS011;11310;51.528;21.204;2024-02-23T13:09:58;8.00;;;3.78;;
22282;SDS011;11310;51.528;21.204;2024-02-23T13:12:27;7.90;;;3.70;;
22282;SDS011;11310;51.528;21.204;2024-02-23T13:14:58;7.60;;;3.50;;
22282;SDS011;11310;51.528;21.204;2024-02-23T13:17:34;6.07;;;3.17;;
22282;SDS011;11310;51.528;21.204;2024-02-23T13:20:08;9.60;;;3.70;;
22282;SDS011;11310;51.528;21.204;2024-02-23T13:22:44;7.55;;;3.85;;
22282;SDS011;11310;51.528;21.204;2024-02-23T13:25:12;8.07;;;3.60;;
22282;SDS011;11310;51.528;21.204;2024-02-23T13:27:42;6.55;;;3.38;;
22282;SDS011;11310;51.528;21.204;2024-02-23T13:30:14;8.10;;;3.60;;
22282;SDS011;11310;51.528;21.204;2024-02-23T13:32:48;7.30;;;3.30;;
22282;SDS011;11310;51.528;21.204;2024-02-23T13:35:20;6.70;;;2.92;;
22282;SDS011;11310;51.528;21.204;2024-02-23T13:37:54;6.90;;;3.08;;
22282;SDS011;11310;51.528;21.204;2024-02-23T13:40:25;7.32;;;3.25;;
22282;SDS011;11310;51.528;21.204;2024-02-23T13:42:54;6.40;;;3.20;;
22282;SDS011;11310;51.528;21.204;2024-02-23T13:45:29;6.47;;;3.25;;
22282;SDS011;11310;51.528;21.204;2024-02-23T13:47:58;8.43;;;3.80;;
22282;SDS011;11310;51.528;21.204;2024-02-23T13:50:28;6.97;;;3.28;;
22282;SDS011;11310;51.528;21.204;2024-02-23T13:53:07;7.53;;;3.50;;
22282;SDS011;11310;51.528;21.204;2024-02-23T13:55:36;7.47;;;3.30;;
22282;SDS011;11310;51.528;21.204;2024-02-23T13:58:09;8.35;;;3.20;;
22282;SDS011;11310;51.528;21.204;2024-02-23T14:00:40;6.35;;;3.10;;
22282;SDS011;11310;51.528;21.204;2024-02-23T14:03:10;7.35;;;3.40;;
22282;SDS011;11310;51.528;21.204;2024-02-23T14:05:45;6.07;;;3.25;;
22282;SDS011;11310;51.528;21.204;2024-02-23T14:08:16;6.05;;;3.15;;
22282;SDS011;11310;51.528;21.204;2024-02-23T14:10:46;7.10;;;3.50;;
22282;SDS011;11310;51.528;21.204;2024-02-23T14:13:15;7.43;;;3.63;;
22282;SDS011;11310;51.528;21.204;2024-02-23T14:15:44;8.30;;;3.50;;
22282;SDS011;11310;51.528;21.204;2024-02-23T14:18:13;8.35;;;3.65;;
22282;SDS011;11310;51.528;21.204;2024-02-23T14:20:42;6.72;;;3.30;;
22282;SDS011;11310;51.528;21.204;2024-02-23T14:23:11;7.13;;;3.38;;
22282;SDS011;11310;51.528;21.204;2024-02-23T14:25:42;6.80;;;3.53;;
22282;SDS011;11310;51.528;21.204;2024-02-23T14:28:11;6.68;;;3.40;;
22282;SDS011;11310;51.528;21.204;2024-02-23T14:30:40;6.95;;;3.58;;
22282;SDS011;11310;51.528;21.204;2024-02-23T14:33:10;7.95;;;4.00;;
22282;SDS011;11310;51.528;21.204;2024-02-23T14:35:38;8.02;;;3.55;;
22282;SDS011;11310;51.528;21.204;2024-02-23T14:38:07;6.22;;;3.60;;
22282;SDS011;11310;51.528;21.204;2024-02-23T14:40:37;9.68;;;3.40;;
22282;SDS011;11310;51.528;21.204;2024-02-23T14:43:07;9.05;;;3.80;;
22282;SDS011;11310;51.528;21.204;2024-02-23T14:45:36;10.93;;;3.97;;
22282;SDS011;11310;51.528;21.204;2024-02-23T14:48:06;7.88;;;3.88;;
22282;SDS011;11310;51.528;21.204;2024-02-23T14:50:35;6.88;;;3.78;;
22282;SDS011;11310;51.528;21.204;2024-02-23T14:53:03;7.57;;;3.63;;
22282;SDS011;11310;51.528;21.204;2024-02-23T14:55:33;8.80;;;3.88;;
22282;SDS011;11310;51.528;21.204;2024-02-23T14:58:02;10.05;;;3.95;;
22282;SDS011;11310;51.528;21.204;2024-02-23T15:00:33;9.07;;;4.07;;
22282;SDS011;11310;51.528;21.204;2024-02-23T15:03:02;8.55;;;3.78;;
22282;SDS011;11310;51.528;21.204;2024-02-23T15:05:31;10.25;;;4.32;;
22282;SDS011;11310;51.528;21.204;2024-02-23T15:08:02;10.60;;;3.80;;
22282;SDS011;11310;51.528;21.204;2024-02-23T15:10:36;11.55;;;3.80;;